sensor_id;sensor_type;location;lat;lon;timestamp;temperature;humidity
1978;DHT22;989;53.016;8.346;2022-12-07T00:01:10;5.30;99.90
1978;DHT22;989;53.016;8.346;2022-12-07T00:03:39;5.20;99.90
1978;DHT22;989;53.016;8.346;2022-12-07T00:06:07;5.10;99.90
1978;DHT22;989;53.016;8.346;2022-12-07T00:08:34;5.10;99.90
1978;DHT22;989;53.016;8.346;2022-12-07T00:11:06;5.20;99.90
1978;DHT22;989;53.016;8.346;2022-12-07T00:13:33;5.10;99.90
1978;DHT22;989;53.016;8.346;2022-12-07T00:16:05;5.00;99.90
1978;DHT22;989;53.016;8.346;2022-12-07T00:18:32;5.00;99.90
1978;DHT22;989;53.016;8.346;2022-12-07T00:21:04;5.10;99.90
1978;DHT22;989;53.016;8.346;2022-12-07T00:23:30;5.00;99.90
1978;DHT22;989;53.016;8.346;2022-12-07T00:26:06;5.00;99.90
1978;DHT22;989;53.016;8.346;2022-12-07T00:28:33;5.00;99.90
1978;DHT22;989;53.016;8.346;2022-12-07T00:31:07;4.90;99.90
1978;DHT22;989;53.016;8.346;2022-12-07T00:33:35;4.80;99.90
1978;DHT22;989;53.016;8.346;2022-12-07T00:36:03;4.80;99.90
1978;DHT22;989;53.016;8.346;2022-12-07T00:38:32;4.80;99.90
1978;DHT22;989;53.016;8.346;2022-12-07T00:41:02;4.90;99.90
1978;DHT22;989;53.016;8.346;2022-12-07T00:43:30;4.90;99.90
1978;DHT22;989;53.016;8.346;2022-12-07T00:45:56;4.90;99.90
1978;DHT22;989;53.016;8.346;2022-12-07T00:48:22;4.90;99.90
1978;DHT22;989;53.016;8.346;2022-12-07T00:50:49;4.90;99.90
1978;DHT22;989;53.016;8.346;2022-12-07T00:53:15;4.70;99.90
1978;DHT22;989;53.016;8.346;2022-12-07T00:55:42;4.60;99.90
1978;DHT22;989;53.016;8.346;2022-12-07T00:58:08;4.50;99.90
1978;DHT22;989;53.016;8.346;2022-12-07T01:00:36;4.50;99.90
1978;DHT22;989;53.016;8.346;2022-12-07T01:03:03;4.50;99.90
1978;DHT22;989;53.016;8.346;2022-12-07T01:05:30;4.40;99.90
1978;DHT22;989;53.016;8.346;2022-12-07T01:07:55;4.40;99.90
1978;DHT22;989;53.016;8.346;2022-12-07T01:10:21;4.60;99.90
1978;DHT22;989;53.016;8.346;2022-12-07T01:12:47;4.60;99.90
1978;DHT22;989;53.016;8.346;2022-12-07T01:15:13;4.60;99.90
1978;DHT22;989;53.016;8.346;2022-12-07T01:17:39;4.60;99.90
1978;DHT22;989;53.016;8.346;2022-12-07T01:20:05;4.70;99.90
1978;DHT22;989;53.016;8.346;2022-12-07T01:22:35;4.80;99.90
1978;DHT22;989;53.016;8.346;2022-12-07T01:25:02;4.70;99.90
1978;DHT22;989;53.016;8.346;2022-12-07T01:27:28;4.60;99.90
1978;DHT22;989;53.016;8.346;2022-12-07T01:29:54;4.60;99.90
1978;DHT22;989;53.016;8.346;2022-12-07T01:32:20;4.50;99.90
1978;DHT22;989;53.016;8.346;2022-12-07T01:34:47;4.40;99.90
1978;DHT22;989;53.016;8.346;2022-12-07T01:37:13;4.30;99.90
1978;DHT22;989;53.016;8.346;2022-12-07T01:39:39;4.30;99.90
1978;DHT22;989;53.016;8.346;2022-12-07T01:42:05;4.30;99.90
1978;DHT22;989;53.016;8.346;2022-12-07T01:47:51;4.30;99.90
1978;DHT22;989;53.016;8.346;2022-12-07T01:50:20;4.30;99.90
1978;DHT22;989;53.016;8.346;2022-12-07T01:52:48;4.30;99.90
1978;DHT22;989;53.016;8.346;2022-12-07T01:55:16;4.30;99.90
1978;DHT22;989;53.016;8.346;2022-12-07T01:57:46;4.30;99.90
1978;DHT22;989;53.016;8.346;2022-12-07T02:00:14;4.30;99.90
1978;DHT22;989;53.016;8.346;2022-12-07T02:02:57;4.40;99.90
1978;DHT22;989;53.016;8.346;2022-12-07T02:05:27;4.50;99.90
1978;DHT22;989;53.016;8.346;2022-12-07T02:07:55;4.60;99.90
1978;DHT22;989;53.016;8.346;2022-12-07T02:10:24;4.70;99.90
1978;DHT22;989;53.016;8.346;2022-12-07T02:12:58;4.70;99.90
1978;DHT22;989;53.016;8.346;2022-12-07T02:15:53;4.70;99.90
1978;DHT22;989;53.016;8.346;2022-12-07T02:21:39;4.80;99.90
1978;DHT22;989;53.016;8.346;2022-12-07T02:24:45;4.70;99.90
1978;DHT22;989;53.016;8.346;2022-12-07T02:27:40;4.60;99.90
1978;DHT22;989;53.016;8.346;2022-12-07T02:30:19;4.50;99.90
1978;DHT22;989;53.016;8.346;2022-12-07T02:32:59;4.40;99.90
1978;DHT22;989;53.016;8.346;2022-12-07T02:35:44;4.40;99.90
1978;DHT22;989;53.016;8.346;2022-12-07T02:38:30;4.40;99.90
1978;DHT22;989;53.016;8.346;2022-12-07T02:41:16;4.40;99.90
1978;DHT22;989;53.016;8.346;2022-12-07T02:43:50;4.40;99.90
1978;DHT22;989;53.016;8.346;2022-12-07T02:46:32;4.40;99.90
1978;DHT22;989;53.016;8.346;2022-12-07T02:48:59;4.30;99.90
1978;DHT22;989;53.016;8.346;2022-12-07T02:51:29;4.30;99.90
1978;DHT22;989;53.016;8.346;2022-12-07T02:53:55;4.30;99.90
1978;DHT22;989;53.016;8.346;2022-12-07T03:02:28;4.20;99.90
1978;DHT22;989;53.016;8.346;2022-12-07T03:05:29;4.10;99.90
1978;DHT22;989;53.016;8.346;2022-12-07T03:08:12;4.10;99.90
1978;DHT22;989;53.016;8.346;2022-12-07T03:13:37;4.00;99.90
1978;DHT22;989;53.016;8.346;2022-12-07T03:16:21;4.00;99.90
1978;DHT22;989;53.016;8.346;2022-12-07T03:19:06;3.90;99.90
1978;DHT22;989;53.016;8.346;2022-12-07T03:21:42;3.90;99.90
1978;DHT22;989;53.016;8.346;2022-12-07T03:24:15;3.90;99.90
1978;DHT22;989;53.016;8.346;2022-12-07T03:26:53;3.90;99.90
1978;DHT22;989;53.016;8.346;2022-12-07T03:29:36;3.90;99.90
1978;DHT22;989;53.016;8.346;2022-12-07T03:32:14;3.90;99.90
1978;DHT22;989;53.016;8.346;2022-12-07T03:35:09;3.90;99.90
1978;DHT22;989;53.016;8.346;2022-12-07T03:37:55;4.10;99.90
1978;DHT22;989;53.016;8.346;2022-12-07T03:40:29;4.30;99.90
1978;DHT22;989;53.016;8.346;2022-12-07T03:43:08;4.30;99.90
1978;DHT22;989;53.016;8.346;2022-12-07T03:45:44;4.30;99.90
1978;DHT22;989;53.016;8.346;2022-12-07T03:48:35;4.30;99.90
1978;DHT22;989;53.016;8.346;2022-12-07T03:51:22;4.30;99.90
1978;DHT22;989;53.016;8.346;2022-12-07T03:54:01;4.20;99.90
1978;DHT22;989;53.016;8.346;2022-12-07T03:56:33;4.30;99.90
1978;DHT22;989;53.016;8.346;2022-12-07T03:59:00;4.30;99.90
1978;DHT22;989;53.016;8.346;2022-12-07T04:01:25;4.30;99.90
1978;DHT22;989;53.016;8.346;2022-12-07T04:03:51;4.30;99.90
1978;DHT22;989;53.016;8.346;2022-12-07T04:06:17;4.30;99.90
1978;DHT22;989;53.016;8.346;2022-12-07T04:08:42;4.30;99.90
1978;DHT22;989;53.016;8.346;2022-12-07T04:11:08;4.30;99.90
1978;DHT22;989;53.016;8.346;2022-12-07T04:13:34;4.30;99.90
1978;DHT22;989;53.016;8.346;2022-12-07T04:16:20;4.30;99.90
1978;DHT22;989;53.016;8.346;2022-12-07T04:18:46;4.30;99.90
1978;DHT22;989;53.016;8.346;2022-12-07T04:21:11;4.30;99.90
1978;DHT22;989;53.016;8.346;2022-12-07T04:23:37;4.30;99.90
1978;DHT22;989;53.016;8.346;2022-12-07T04:26:02;4.30;99.90
1978;DHT22;989;53.016;8.346;2022-12-07T04:28:28;4.30;99.90
1978;DHT22;989;53.016;8.346;2022-12-07T04:30:54;4.30;99.90
1978;DHT22;989;53.016;8.346;2022-12-07T04:33:19;4.30;99.90
1978;DHT22;989;53.016;8.346;2022-12-07T04:35:45;4.30;99.90
1978;DHT22;989;53.016;8.346;2022-12-07T04:38:10;4.30;99.90
1978;DHT22;989;53.016;8.346;2022-12-07T04:40:36;4.20;99.90
1978;DHT22;989;53.016;8.346;2022-12-07T04:43:02;4.20;99.90
1978;DHT22;989;53.016;8.346;2022-12-07T04:45:27;4.20;99.90
1978;DHT22;989;53.016;8.346;2022-12-07T04:47:53;4.20;99.90
1978;DHT22;989;53.016;8.346;2022-12-07T04:50:19;4.10;99.90
1978;DHT22;989;53.016;8.346;2022-12-07T04:52:44;4.00;99.90
1978;DHT22;989;53.016;8.346;2022-12-07T04:55:10;4.20;99.90
1978;DHT22;989;53.016;8.346;2022-12-07T04:57:35;4.30;99.90
1978;DHT22;989;53.016;8.346;2022-12-07T05:00:01;4.40;99.90
1978;DHT22;989;53.016;8.346;2022-12-07T05:02:27;4.40;99.90
1978;DHT22;989;53.016;8.346;2022-12-07T05:04:53;4.40;99.90
1978;DHT22;989;53.016;8.346;2022-12-07T05:07:19;4.40;99.90
1978;DHT22;989;53.016;8.346;2022-12-07T05:09:44;4.50;99.90
1978;DHT22;989;53.016;8.346;2022-12-07T05:12:10;4.50;99.90
1978;DHT22;989;53.016;8.346;2022-12-07T05:14:35;4.50;99.90
1978;DHT22;989;53.016;8.346;2022-12-07T05:17:01;4.50;99.90
1978;DHT22;989;53.016;8.346;2022-12-07T05:19:27;4.50;99.90
1978;DHT22;989;53.016;8.346;2022-12-07T05:21:52;4.50;99.90
1978;DHT22;989;53.016;8.346;2022-12-07T05:24:18;4.50;99.90
1978;DHT22;989;53.016;8.346;2022-12-07T05:26:44;4.50;99.90
1978;DHT22;989;53.016;8.346;2022-12-07T05:29:14;4.50;99.90
1978;DHT22;989;53.016;8.346;2022-12-07T05:31:41;4.40;99.90
1978;DHT22;989;53.016;8.346;2022-12-07T05:34:07;4.30;99.90
1978;DHT22;989;53.016;8.346;2022-12-07T05:36:33;4.30;99.90
1978;DHT22;989;53.016;8.346;2022-12-07T05:38:59;4.30;99.90
1978;DHT22;989;53.016;8.346;2022-12-07T05:41:24;4.20;99.90
1978;DHT22;989;53.016;8.346;2022-12-07T05:44:09;4.20;99.90
1978;DHT22;989;53.016;8.346;2022-12-07T05:46:34;4.30;99.90
1978;DHT22;989;53.016;8.346;2022-12-07T05:49:01;4.30;99.90
1978;DHT22;989;53.016;8.346;2022-12-07T05:51:27;4.30;99.90
1978;DHT22;989;53.016;8.346;2022-12-07T05:53:53;4.40;99.90
1978;DHT22;989;53.016;8.346;2022-12-07T05:56:19;4.40;99.90
1978;DHT22;989;53.016;8.346;2022-12-07T05:58:44;4.50;99.90
1978;DHT22;989;53.016;8.346;2022-12-07T06:01:29;4.50;99.90
1978;DHT22;989;53.016;8.346;2022-12-07T06:03:54;4.50;99.90
1978;DHT22;989;53.016;8.346;2022-12-07T06:06:20;4.50;99.90
1978;DHT22;989;53.016;8.346;2022-12-07T06:08:46;4.60;99.90
1978;DHT22;989;53.016;8.346;2022-12-07T06:11:11;4.50;99.90
1978;DHT22;989;53.016;8.346;2022-12-07T06:13:56;4.60;99.90
1978;DHT22;989;53.016;8.346;2022-12-07T06:16:21;4.50;99.90
1978;DHT22;989;53.016;8.346;2022-12-07T06:18:47;4.50;99.90
1978;DHT22;989;53.016;8.346;2022-12-07T06:21:12;4.60;99.90
1978;DHT22;989;53.016;8.346;2022-12-07T06:23:39;4.60;99.90
1978;DHT22;989;53.016;8.346;2022-12-07T06:26:05;4.70;99.90
1978;DHT22;989;53.016;8.346;2022-12-07T06:28:30;4.60;99.90
1978;DHT22;989;53.016;8.346;2022-12-07T06:31:00;4.60;99.90
1978;DHT22;989;53.016;8.346;2022-12-07T06:33:27;4.60;99.90
1978;DHT22;989;53.016;8.346;2022-12-07T06:35:53;4.60;99.90
1978;DHT22;989;53.016;8.346;2022-12-07T06:38:19;4.60;99.90
1978;DHT22;989;53.016;8.346;2022-12-07T06:40:44;4.60;99.90
1978;DHT22;989;53.016;8.346;2022-12-07T06:43:10;4.60;99.90
1978;DHT22;989;53.016;8.346;2022-12-07T06:45:36;4.60;99.90
1978;DHT22;989;53.016;8.346;2022-12-07T06:48:01;4.60;99.90
1978;DHT22;989;53.016;8.346;2022-12-07T06:50:27;4.60;99.90
1978;DHT22;989;53.016;8.346;2022-12-07T06:52:52;4.60;99.90
1978;DHT22;989;53.016;8.346;2022-12-07T06:55:18;4.60;99.90
1978;DHT22;989;53.016;8.346;2022-12-07T06:57:44;4.60;99.90
1978;DHT22;989;53.016;8.346;2022-12-07T07:00:10;4.60;99.90
1978;DHT22;989;53.016;8.346;2022-12-07T07:02:36;4.70;99.90
1978;DHT22;989;53.016;8.346;2022-12-07T07:05:03;4.70;99.90
1978;DHT22;989;53.016;8.346;2022-12-07T07:07:29;4.70;99.90
1978;DHT22;989;53.016;8.346;2022-12-07T07:09:55;4.70;99.90
1978;DHT22;989;53.016;8.346;2022-12-07T07:12:21;4.70;99.90
1978;DHT22;989;53.016;8.346;2022-12-07T07:14:46;4.70;99.90
1978;DHT22;989;53.016;8.346;2022-12-07T07:17:12;4.70;99.90
1978;DHT22;989;53.016;8.346;2022-12-07T07:19:38;4.60;99.90
1978;DHT22;989;53.016;8.346;2022-12-07T07:22:04;4.70;99.90
1978;DHT22;989;53.016;8.346;2022-12-07T07:24:30;4.60;99.90
1978;DHT22;989;53.016;8.346;2022-12-07T07:26:55;4.60;99.90
1978;DHT22;989;53.016;8.346;2022-12-07T07:29:21;4.60;99.90
1978;DHT22;989;53.016;8.346;2022-12-07T07:31:47;4.50;99.90
1978;DHT22;989;53.016;8.346;2022-12-07T07:34:12;4.40;99.90
1978;DHT22;989;53.016;8.346;2022-12-07T07:36:38;4.40;99.90
1978;DHT22;989;53.016;8.346;2022-12-07T07:39:04;4.40;99.90
1978;DHT22;989;53.016;8.346;2022-12-07T07:41:30;4.30;99.90
1978;DHT22;989;53.016;8.346;2022-12-07T07:43:57;4.20;99.90
1978;DHT22;989;53.016;8.346;2022-12-07T07:46:22;4.10;99.90
1978;DHT22;989;53.016;8.346;2022-12-07T07:48:48;4.00;99.90
1978;DHT22;989;53.016;8.346;2022-12-07T07:51:14;4.00;99.90
1978;DHT22;989;53.016;8.346;2022-12-07T07:53:40;4.00;99.90
1978;DHT22;989;53.016;8.346;2022-12-07T07:56:05;4.00;99.90
1978;DHT22;989;53.016;8.346;2022-12-07T07:58:31;3.80;99.90
1978;DHT22;989;53.016;8.346;2022-12-07T08:00:56;3.70;99.90
1978;DHT22;989;53.016;8.346;2022-12-07T08:03:22;3.50;99.90
1978;DHT22;989;53.016;8.346;2022-12-07T08:05:48;3.30;99.90
1978;DHT22;989;53.016;8.346;2022-12-07T08:08:14;3.20;99.90
1978;DHT22;989;53.016;8.346;2022-12-07T08:10:40;3.30;99.90
1978;DHT22;989;53.016;8.346;2022-12-07T08:13:06;3.40;99.90
1978;DHT22;989;53.016;8.346;2022-12-07T08:15:40;3.60;99.90
1978;DHT22;989;53.016;8.346;2022-12-07T08:18:06;3.80;99.90
1978;DHT22;989;53.016;8.346;2022-12-07T08:20:34;4.00;99.90
1978;DHT22;989;53.016;8.346;2022-12-07T08:23:00;4.10;99.90
1978;DHT22;989;53.016;8.346;2022-12-07T08:25:27;4.20;99.90
1978;DHT22;989;53.016;8.346;2022-12-07T08:27:53;4.20;99.90
1978;DHT22;989;53.016;8.346;2022-12-07T08:30:19;4.20;99.90
1978;DHT22;989;53.016;8.346;2022-12-07T08:32:46;4.20;99.90
1978;DHT22;989;53.016;8.346;2022-12-07T08:35:13;4.10;99.90
1978;DHT22;989;53.016;8.346;2022-12-07T08:37:39;4.00;99.90
1978;DHT22;989;53.016;8.346;2022-12-07T08:40:07;4.10;99.90
1978;DHT22;989;53.016;8.346;2022-12-07T08:42:33;4.10;99.90
1978;DHT22;989;53.016;8.346;2022-12-07T08:45:13;4.20;99.90
1978;DHT22;989;53.016;8.346;2022-12-07T08:48:01;4.30;99.90
1978;DHT22;989;53.016;8.346;2022-12-07T08:50:31;4.50;99.90
1978;DHT22;989;53.016;8.346;2022-12-07T08:52:58;4.60;99.90
1978;DHT22;989;53.016;8.346;2022-12-07T08:55:25;4.50;99.90
1978;DHT22;989;53.016;8.346;2022-12-07T08:57:51;4.60;99.90
1978;DHT22;989;53.016;8.346;2022-12-07T09:00:17;4.60;99.90
1978;DHT22;989;53.016;8.346;2022-12-07T09:02:45;4.60;99.90
1978;DHT22;989;53.016;8.346;2022-12-07T09:05:12;4.70;99.90
1978;DHT22;989;53.016;8.346;2022-12-07T09:07:41;4.70;99.90
1978;DHT22;989;53.016;8.346;2022-12-07T09:10:11;4.70;99.90
1978;DHT22;989;53.016;8.346;2022-12-07T09:12:37;4.90;99.90
1978;DHT22;989;53.016;8.346;2022-12-07T09:15:03;4.90;99.90
1978;DHT22;989;53.016;8.346;2022-12-07T09:17:32;4.70;99.90
1978;DHT22;989;53.016;8.346;2022-12-07T09:19:59;4.60;99.90
1978;DHT22;989;53.016;8.346;2022-12-07T09:22:29;4.60;99.90
1978;DHT22;989;53.016;8.346;2022-12-07T09:24:58;4.70;99.90
1978;DHT22;989;53.016;8.346;2022-12-07T09:27:25;4.70;99.90
1978;DHT22;989;53.016;8.346;2022-12-07T09:29:51;4.80;99.90
1978;DHT22;989;53.016;8.346;2022-12-07T09:32:17;4.80;99.90
1978;DHT22;989;53.016;8.346;2022-12-07T09:34:43;4.90;99.90
1978;DHT22;989;53.016;8.346;2022-12-07T09:37:09;4.90;99.90
1978;DHT22;989;53.016;8.346;2022-12-07T09:39:38;4.90;99.90
1978;DHT22;989;53.016;8.346;2022-12-07T09:42:05;4.90;99.90
1978;DHT22;989;53.016;8.346;2022-12-07T09:44:31;4.80;99.90
1978;DHT22;989;53.016;8.346;2022-12-07T09:46:58;4.90;99.90
1978;DHT22;989;53.016;8.346;2022-12-07T09:49:25;5.00;99.90
1978;DHT22;989;53.016;8.346;2022-12-07T09:52:19;5.10;99.90
1978;DHT22;989;53.016;8.346;2022-12-07T09:54:49;5.10;99.90
1978;DHT22;989;53.016;8.346;2022-12-07T09:57:15;5.10;99.90
1978;DHT22;989;53.016;8.346;2022-12-07T09:59:41;5.30;99.90
1978;DHT22;989;53.016;8.346;2022-12-07T10:02:39;5.30;99.90
1978;DHT22;989;53.016;8.346;2022-12-07T10:05:14;5.50;99.90
1978;DHT22;989;53.016;8.346;2022-12-07T10:07:42;5.90;99.90
1978;DHT22;989;53.016;8.346;2022-12-07T10:10:17;6.00;99.90
1978;DHT22;989;53.016;8.346;2022-12-07T10:13:02;6.20;99.90
1978;DHT22;989;53.016;8.346;2022-12-07T10:15:51;6.40;99.90
1978;DHT22;989;53.016;8.346;2022-12-07T10:18:34;6.50;99.90
1978;DHT22;989;53.016;8.346;2022-12-07T10:23:39;6.20;99.90
1978;DHT22;989;53.016;8.346;2022-12-07T10:28:54;6.30;99.90
1978;DHT22;989;53.016;8.346;2022-12-07T10:31:22;6.30;99.90
1978;DHT22;989;53.016;8.346;2022-12-07T10:33:59;6.40;99.90
1978;DHT22;989;53.016;8.346;2022-12-07T10:36:37;6.40;97.40
1978;DHT22;989;53.016;8.346;2022-12-07T10:39:13;6.50;98.50
1978;DHT22;989;53.016;8.346;2022-12-07T10:41:59;6.60;94.30
1978;DHT22;989;53.016;8.346;2022-12-07T10:44:31;6.60;97.20
1978;DHT22;989;53.016;8.346;2022-12-07T10:47:07;6.80;95.90
1978;DHT22;989;53.016;8.346;2022-12-07T10:52:31;7.00;91.20
1978;DHT22;989;53.016;8.346;2022-12-07T10:55:21;6.70;75.30
1978;DHT22;989;53.016;8.346;2022-12-07T11:00:43;6.80;68.30
1978;DHT22;989;53.016;8.346;2022-12-07T11:07:18;6.90;62.80
1978;DHT22;989;53.016;8.346;2022-12-07T11:10:19;6.90;59.40
1978;DHT22;989;53.016;8.346;2022-12-07T11:21:27;6.90;56.00
1978;DHT22;989;53.016;8.346;2022-12-07T11:24:08;6.80;52.90
1978;DHT22;989;53.016;8.346;2022-12-07T11:29:51;7.00;46.10
1978;DHT22;989;53.016;8.346;2022-12-07T11:33:12;7.30;40.30
1978;DHT22;989;53.016;8.346;2022-12-07T11:36:10;7.20;36.90
1978;DHT22;989;53.016;8.346;2022-12-07T11:39:05;7.20;40.30
1978;DHT22;989;53.016;8.346;2022-12-07T11:41:42;7.30;36.90
1978;DHT22;989;53.016;8.346;2022-12-07T11:47:00;7.20;36.50
1978;DHT22;989;53.016;8.346;2022-12-07T12:06:42;6.70;51.40
1978;DHT22;989;53.016;8.346;2022-12-07T12:09:19;6.80;50.30
1978;DHT22;989;53.016;8.346;2022-12-07T12:17:51;6.70;51.80
1978;DHT22;989;53.016;8.346;2022-12-07T12:23:07;6.60;44.50
1978;DHT22;989;53.016;8.346;2022-12-07T12:25:58;6.70;49.80
1978;DHT22;989;53.016;8.346;2022-12-07T12:33:49;6.60;45.60
1978;DHT22;989;53.016;8.346;2022-12-07T12:51:51;6.50;37.00
1978;DHT22;989;53.016;8.346;2022-12-07T12:54:19;6.50;38.60
1978;DHT22;989;53.016;8.346;2022-12-07T12:57:13;6.40;33.30
1978;DHT22;989;53.016;8.346;2022-12-07T13:02:36;6.30;36.30
1978;DHT22;989;53.016;8.346;2022-12-07T13:05:18;6.20;39.40
1978;DHT22;989;53.016;8.346;2022-12-07T13:15:51;6.30;31.60
1978;DHT22;989;53.016;8.346;2022-12-07T13:21:00;6.40;35.40
1978;DHT22;989;53.016;8.346;2022-12-07T13:29:13;6.50;33.10
1978;DHT22;989;53.016;8.346;2022-12-07T13:31:45;6.60;29.70
1978;DHT22;989;53.016;8.346;2022-12-07T13:34:34;6.50;30.30
1978;DHT22;989;53.016;8.346;2022-12-07T13:37:02;6.60;28.20
1978;DHT22;989;53.016;8.346;2022-12-07T13:39:45;6.70;23.40
1978;DHT22;989;53.016;8.346;2022-12-07T13:44:56;6.30;28.00
1978;DHT22;989;53.016;8.346;2022-12-07T13:47:39;6.30;31.90
1978;DHT22;989;53.016;8.346;2022-12-07T13:50:31;6.10;36.40
1978;DHT22;989;53.016;8.346;2022-12-07T13:52:59;6.10;39.40
1978;DHT22;989;53.016;8.346;2022-12-07T13:55:27;6.10;45.80
1978;DHT22;989;53.016;8.346;2022-12-07T13:57:54;6.10;48.40
1978;DHT22;989;53.016;8.346;2022-12-07T14:00:21;6.10;51.50
1978;DHT22;989;53.016;8.346;2022-12-07T14:02:59;6.00;54.20
1978;DHT22;989;53.016;8.346;2022-12-07T14:05:47;6.00;58.00
1978;DHT22;989;53.016;8.346;2022-12-07T14:08:43;5.80;64.70
1978;DHT22;989;53.016;8.346;2022-12-07T14:11:14;5.70;73.40
1978;DHT22;989;53.016;8.346;2022-12-07T14:16:25;5.70;86.30
1978;DHT22;989;53.016;8.346;2022-12-07T14:18:58;5.60;87.60
1978;DHT22;989;53.016;8.346;2022-12-07T14:21:29;5.60;90.40
1978;DHT22;989;53.016;8.346;2022-12-07T14:24:14;5.60;92.70
1978;DHT22;989;53.016;8.346;2022-12-07T14:26:47;5.50;94.10
1978;DHT22;989;53.016;8.346;2022-12-07T14:29:27;5.60;93.60
1978;DHT22;989;53.016;8.346;2022-12-07T14:31:57;5.50;93.90
1978;DHT22;989;53.016;8.346;2022-12-07T14:34:25;5.50;94.90
1978;DHT22;989;53.016;8.346;2022-12-07T14:36:51;5.40;96.20
1978;DHT22;989;53.016;8.346;2022-12-07T14:39:16;5.40;98.30
1978;DHT22;989;53.016;8.346;2022-12-07T14:41:42;5.40;99.90
1978;DHT22;989;53.016;8.346;2022-12-07T14:44:18;5.00;93.80
1978;DHT22;989;53.016;8.346;2022-12-07T14:46:45;4.60;99.20
1978;DHT22;989;53.016;8.346;2022-12-07T14:49:11;4.40;99.90
1978;DHT22;989;53.016;8.346;2022-12-07T14:51:38;4.30;99.90
1978;DHT22;989;53.016;8.346;2022-12-07T14:54:06;4.20;99.90
1978;DHT22;989;53.016;8.346;2022-12-07T14:56:39;4.00;99.90
1978;DHT22;989;53.016;8.346;2022-12-07T14:59:05;4.00;99.90
1978;DHT22;989;53.016;8.346;2022-12-07T15:01:31;4.00;99.90
1978;DHT22;989;53.016;8.346;2022-12-07T15:03:56;4.00;99.90
1978;DHT22;989;53.016;8.346;2022-12-07T15:06:22;4.00;99.90
1978;DHT22;989;53.016;8.346;2022-12-07T15:08:47;4.10;99.90
1978;DHT22;989;53.016;8.346;2022-12-07T15:11:14;4.10;99.90
1978;DHT22;989;53.016;8.346;2022-12-07T15:13:40;4.10;99.90
1978;DHT22;989;53.016;8.346;2022-12-07T15:16:25;4.10;99.90
1978;DHT22;989;53.016;8.346;2022-12-07T15:18:51;4.10;99.90
1978;DHT22;989;53.016;8.346;2022-12-07T15:21:17;4.10;99.90
1978;DHT22;989;53.016;8.346;2022-12-07T15:23:43;4.20;99.90
1978;DHT22;989;53.016;8.346;2022-12-07T15:26:10;4.40;99.90
1978;DHT22;989;53.016;8.346;2022-12-07T15:28:36;4.30;99.90
1978;DHT22;989;53.016;8.346;2022-12-07T15:31:02;4.20;99.90
1978;DHT22;989;53.016;8.346;2022-12-07T15:33:28;4.10;99.90
1978;DHT22;989;53.016;8.346;2022-12-07T15:35:54;4.10;99.90
1978;DHT22;989;53.016;8.346;2022-12-07T15:38:19;4.00;99.90
1978;DHT22;989;53.016;8.346;2022-12-07T15:40:48;4.00;99.90
1978;DHT22;989;53.016;8.346;2022-12-07T15:43:14;4.00;99.90
1978;DHT22;989;53.016;8.346;2022-12-07T15:45:58;4.10;99.90
1978;DHT22;989;53.016;8.346;2022-12-07T15:48:26;4.30;99.90
1978;DHT22;989;53.016;8.346;2022-12-07T15:50:51;4.30;99.90
1978;DHT22;989;53.016;8.346;2022-12-07T15:53:17;4.40;99.90
1978;DHT22;989;53.016;8.346;2022-12-07T15:55:43;4.40;99.90
1978;DHT22;989;53.016;8.346;2022-12-07T15:58:08;4.40;99.90
1978;DHT22;989;53.016;8.346;2022-12-07T16:00:34;4.50;99.90
1978;DHT22;989;53.016;8.346;2022-12-07T16:03:00;4.50;99.90
1978;DHT22;989;53.016;8.346;2022-12-07T16:05:25;4.50;99.90
1978;DHT22;989;53.016;8.346;2022-12-07T16:07:51;4.60;99.90
1978;DHT22;989;53.016;8.346;2022-12-07T16:10:16;4.60;99.90
1978;DHT22;989;53.016;8.346;2022-12-07T16:12:42;4.60;99.90
1978;DHT22;989;53.016;8.346;2022-12-07T16:15:08;4.40;99.90
1978;DHT22;989;53.016;8.346;2022-12-07T16:17:34;4.20;99.90
1978;DHT22;989;53.016;8.346;2022-12-07T16:20:00;4.10;99.90
1978;DHT22;989;53.016;8.346;2022-12-07T16:22:25;4.10;99.90
1978;DHT22;989;53.016;8.346;2022-12-07T16:24:51;4.20;99.90
1978;DHT22;989;53.016;8.346;2022-12-07T16:27:17;4.10;99.90
1978;DHT22;989;53.016;8.346;2022-12-07T16:29:42;4.10;99.90
1978;DHT22;989;53.016;8.346;2022-12-07T16:32:08;4.10;99.90
1978;DHT22;989;53.016;8.346;2022-12-07T16:34:34;4.20;99.90
1978;DHT22;989;53.016;8.346;2022-12-07T16:36:59;4.20;99.90
1978;DHT22;989;53.016;8.346;2022-12-07T16:39:25;4.30;99.90
1978;DHT22;989;53.016;8.346;2022-12-07T16:41:51;4.30;99.90
1978;DHT22;989;53.016;8.346;2022-12-07T16:44:18;4.30;99.90
1978;DHT22;989;53.016;8.346;2022-12-07T16:46:43;4.40;99.90
1978;DHT22;989;53.016;8.346;2022-12-07T16:49:13;4.30;99.90
1978;DHT22;989;53.016;8.346;2022-12-07T16:51:40;4.30;99.90
1978;DHT22;989;53.016;8.346;2022-12-07T16:54:09;4.40;99.90
1978;DHT22;989;53.016;8.346;2022-12-07T16:56:37;4.40;99.90
1978;DHT22;989;53.016;8.346;2022-12-07T16:59:03;4.40;99.90
1978;DHT22;989;53.016;8.346;2022-12-07T17:01:28;4.40;99.90
1978;DHT22;989;53.016;8.346;2022-12-07T17:03:56;4.40;99.90
1978;DHT22;989;53.016;8.346;2022-12-07T17:06:25;4.40;99.90
1978;DHT22;989;53.016;8.346;2022-12-07T17:08:53;4.30;99.90
1978;DHT22;989;53.016;8.346;2022-12-07T17:11:22;4.30;99.90
1978;DHT22;989;53.016;8.346;2022-12-07T17:13:50;4.30;99.90
1978;DHT22;989;53.016;8.346;2022-12-07T17:16:35;4.30;99.90
1978;DHT22;989;53.016;8.346;2022-12-07T17:19:04;4.30;99.90
1978;DHT22;989;53.016;8.346;2022-12-07T17:21:31;4.30;99.90
1978;DHT22;989;53.016;8.346;2022-12-07T17:24:01;4.30;99.90
1978;DHT22;989;53.016;8.346;2022-12-07T17:26:29;4.30;99.90
1978;DHT22;989;53.016;8.346;2022-12-07T17:28:56;4.30;99.90
1978;DHT22;989;53.016;8.346;2022-12-07T17:31:23;4.30;99.90
1978;DHT22;989;53.016;8.346;2022-12-07T17:33:49;4.30;99.90
1978;DHT22;989;53.016;8.346;2022-12-07T17:36:18;4.20;99.90
1978;DHT22;989;53.016;8.346;2022-12-07T17:38:46;4.20;99.90
1978;DHT22;989;53.016;8.346;2022-12-07T17:41:18;4.10;99.90
1978;DHT22;989;53.016;8.346;2022-12-07T17:44:06;4.10;99.90
1978;DHT22;989;53.016;8.346;2022-12-07T17:46:33;4.10;99.90
1978;DHT22;989;53.016;8.346;2022-12-07T17:49:00;4.00;99.90
1978;DHT22;989;53.016;8.346;2022-12-07T17:51:26;4.10;99.90
1978;DHT22;989;53.016;8.346;2022-12-07T17:54:11;4.00;99.90
1978;DHT22;989;53.016;8.346;2022-12-07T17:56:37;4.00;99.90
1978;DHT22;989;53.016;8.346;2022-12-07T17:59:04;4.00;99.90
1978;DHT22;989;53.016;8.346;2022-12-07T18:01:30;4.00;99.90
1978;DHT22;989;53.016;8.346;2022-12-07T18:03:56;3.90;99.90
1978;DHT22;989;53.016;8.346;2022-12-07T18:06:22;3.90;99.90
1978;DHT22;989;53.016;8.346;2022-12-07T18:08:47;3.80;99.90
1978;DHT22;989;53.016;8.346;2022-12-07T18:11:13;3.70;99.90
1978;DHT22;989;53.016;8.346;2022-12-07T18:13:39;3.70;99.90
1978;DHT22;989;53.016;8.346;2022-12-07T18:16:12;3.60;99.90
1978;DHT22;989;53.016;8.346;2022-12-07T18:18:40;3.50;99.90
1978;DHT22;989;53.016;8.346;2022-12-07T18:21:11;3.50;99.90
1978;DHT22;989;53.016;8.346;2022-12-07T18:23:41;3.50;99.90
1978;DHT22;989;53.016;8.346;2022-12-07T18:26:08;3.50;99.90
1978;DHT22;989;53.016;8.346;2022-12-07T18:28:34;3.50;99.90
1978;DHT22;989;53.016;8.346;2022-12-07T18:31:00;3.50;99.90
1978;DHT22;989;53.016;8.346;2022-12-07T18:33:25;3.50;99.90
1978;DHT22;989;53.016;8.346;2022-12-07T18:35:51;3.50;99.90
1978;DHT22;989;53.016;8.346;2022-12-07T18:38:17;3.50;99.90
1978;DHT22;989;53.016;8.346;2022-12-07T18:40:43;3.40;99.90
1978;DHT22;989;53.016;8.346;2022-12-07T18:43:10;3.40;99.90
1978;DHT22;989;53.016;8.346;2022-12-07T18:45:38;3.30;99.90
1978;DHT22;989;53.016;8.346;2022-12-07T18:48:05;3.30;99.90
1978;DHT22;989;53.016;8.346;2022-12-07T18:50:32;3.30;99.90